createdAt,value
2022-09-04T00:01:08.278Z,96882.69
2022-09-04T00:03:47.795Z,96881.56
2022-09-04T00:06:25.576Z,96884.63
2022-09-04T00:09:12.845Z,96883.44
2022-09-04T00:12:01.722Z,96872.66
2022-09-04T00:14:50.006Z,96881.09
2022-09-04T00:17:32.747Z,96880.34
2022-09-04T00:20:14.592Z,96879.59
2022-09-04T00:22:54.641Z,96883.56
2022-09-04T00:25:47.277Z,96879.97
2022-09-04T00:28:34.003Z,96869.59
2022-09-04T00:31:39.439Z,96865.78
2022-09-04T00:34:25.018Z,96866.38
2022-09-04T00:37:01.370Z,96882.16
2022-09-04T00:39:40.326Z,96885.78
2022-09-04T00:42:40.084Z,96883.25
2022-09-04T00:45:34.263Z,96885.69
2022-09-04T00:48:20.916Z,96880.72
2022-09-04T00:51:12.542Z,96885.34
2022-09-04T00:53:53.296Z,96882.81
2022-09-04T00:56:50.057Z,96884.81
2022-09-04T00:59:21.746Z,96887.44
2022-09-04T01:01:56.620Z,96882.34
2022-09-04T01:04:28.429Z,96883.25
2022-09-04T01:07:27.418Z,96885.41
2022-09-04T01:10:31.437Z,96871.13
2022-09-04T01:13:35.198Z,96877.06
2022-09-04T01:16:15.601Z,96878.69
2022-09-04T01:18:56.984Z,96895.19
2022-09-04T01:22:10.319Z,96896.19
2022-09-04T01:25:16.047Z,96890.66
2022-09-04T01:28:07.831Z,96884.41
2022-09-04T01:31:15.119Z,96894.97
2022-09-04T01:34:26.595Z,96885.69
2022-09-04T01:37:08.032Z,96875.91
2022-09-04T01:39:38.725Z,96880.19
2022-09-04T01:42:18.727Z,96874.19
2022-09-04T01:44:49.089Z,96872.78
2022-09-04T01:47:41.270Z,96872.13
2022-09-04T01:50:22.975Z,96869.50
2022-09-04T01:53:06.064Z,96870.50
2022-09-04T01:55:53.112Z,96876.13
2022-09-04T01:58:28.298Z,96873.47
2022-09-04T02:01:39.190Z,96880.28
2022-09-04T02:04:31.766Z,96878.09
2022-09-04T02:07:06.026Z,96876.47
2022-09-04T02:10:13.271Z,96864.75
2022-09-04T02:12:59.018Z,96869.97
2022-09-04T02:16:07.392Z,96853.41
2022-09-04T02:18:39.352Z,96853.78
2022-09-04T02:21:40.302Z,96867.22
2022-09-04T02:24:26.004Z,96860.13
2022-09-04T02:27:32.734Z,96856.28
2022-09-04T02:30:04.638Z,96859.75
2022-09-04T02:32:44.775Z,96855.13
2022-09-04T02:35:32.240Z,96853.31
2022-09-04T02:38:16.147Z,96855.34
2022-09-04T02:41:03.980Z,96850.22
2022-09-04T02:44:03.671Z,96854.06
2022-09-04T02:46:44.503Z,96869.16
2022-09-04T02:49:25.104Z,96858.34
2022-09-04T02:52:19.263Z,96853.03
2022-09-04T02:55:06.948Z,96841.97
2022-09-04T02:58:15.267Z,96845.56
2022-09-04T03:00:56.734Z,96838.81
2022-09-04T03:03:38.867Z,96849.63
2022-09-04T03:06:23.426Z,96836.22
2022-09-04T03:09:09.680Z,96845.84
2022-09-04T03:11:46.726Z,96844.53
2022-09-04T03:14:43.950Z,96843.41
2022-09-04T03:17:22.712Z,96855.00
2022-09-04T03:20:02.693Z,96840.19
2022-09-04T03:22:40.841Z,96846.06
2022-09-04T03:25:12.899Z,96845.25
2022-09-04T03:27:42.566Z,96847.75
2022-09-04T03:30:14.389Z,96837.38
2022-09-04T03:33:04.459Z,96844.94
2022-09-04T03:36:00.516Z,96841.25
2022-09-04T03:39:06.114Z,96841.84
2022-09-04T03:42:17.405Z,96832.13
2022-09-04T03:45:21.511Z,96833.41
2022-09-04T03:48:11.401Z,96827.06
2022-09-04T03:50:59.701Z,96824.69
2022-09-04T03:53:46.552Z,96822.59
2022-09-04T03:56:27.141Z,96821.16
2022-09-04T03:59:07.781Z,96815.00
2022-09-04T04:01:40.536Z,96817.72
2022-09-04T04:04:53.505Z,96820.44
2022-09-04T04:07:43.622Z,96829.72
2022-09-04T04:10:20.241Z,96826.66
2022-09-04T04:13:04.916Z,96825.81
2022-09-04T04:16:11.723Z,96823.50
2022-09-04T04:19:17.468Z,96816.09
2022-09-04T04:21:58.709Z,96827.13
2022-09-04T04:24:46.156Z,96817.38
2022-09-04T04:27:36.897Z,96816.19
2022-09-04T04:30:19.098Z,96805.88
2022-09-04T04:33:18.958Z,96808.84
2022-09-04T04:36:06.386Z,96808.31
2022-09-04T04:39:25.791Z,96798.97
2022-09-04T04:42:09.775Z,96803.44
2022-09-04T04:45:08.596Z,96799.78
2022-09-04T04:48:08.748Z,96806.41
2022-09-04T04:51:14.170Z,96793.59
2022-09-04T04:54:19.813Z,96803.97
2022-09-04T04:56:58.577Z,96798.13
2022-09-04T05:00:07.498Z,96807.78
2022-09-04T05:02:52.415Z,96798.06
2022-09-04T05:05:44.284Z,96808.81
2022-09-04T05:08:39.605Z,96806.78
2022-09-04T05:11:41.081Z,96802.31
2022-09-04T05:14:48.080Z,96807.28
2022-09-04T05:17:33.250Z,96802.00
2022-09-04T05:20:21.111Z,96802.47
2022-09-04T05:23:17.567Z,96802.00
2022-09-04T05:26:18.028Z,96791.84
2022-09-04T05:28:55.882Z,96794.59
2022-09-04T05:31:45.958Z,96795.50
2022-09-04T05:34:17.840Z,96784.75
2022-09-04T05:37:40.672Z,96789.19
2022-09-04T05:40:37.056Z,96776.97
2022-09-04T05:43:11.928Z,96782.22
2022-09-04T05:45:46.498Z,96779.44
2022-09-04T05:48:42.339Z,96772.72
2022-09-04T05:51:38.559Z,96773.53
2022-09-04T05:54:22.165Z,96770.75
2022-09-04T05:57:17.354Z,96772.69
2022-09-04T06:00:05.268Z,96772.81
2022-09-04T06:02:56.114Z,96766.97
2022-09-04T06:05:46.253Z,96754.56
2022-09-04T06:08:33.600Z,96754.59
2022-09-04T06:11:10.186Z,96745.78
2022-09-04T06:13:52.929Z,96739.81
2022-09-04T06:16:30.996Z,96745.09
2022-09-04T06:19:25.126Z,96736.34
2022-09-04T06:22:15.358Z,96729.50
2022-09-04T06:25:05.942Z,96737.84
2022-09-04T06:27:47.244Z,96728.69
2022-09-04T06:30:18.452Z,96725.78
2022-09-04T06:33:10.945Z,96731.28
2022-09-04T06:36:12.768Z,96721.91
2022-09-04T06:38:50.083Z,96725.91
2022-09-04T06:41:48.303Z,96725.91
2022-09-04T06:44:41.914Z,96721.22
2022-09-04T06:47:31.805Z,96722.31
2022-09-04T06:50:22.408Z,96719.28
2022-09-04T06:53:27.603Z,96719.75
2022-09-04T06:56:15.060Z,96721.97
2022-09-04T06:59:00.582Z,96719.06
2022-09-04T07:02:01.486Z,96719.94
2022-09-04T07:04:56.276Z,96713.72
2022-09-04T07:07:37.955Z,96703.53
2022-09-04T07:10:22.793Z,96700.69
2022-09-04T07:13:11.415Z,96701.16
2022-09-04T07:16:06.480Z,96696.44
2022-09-04T07:18:44.190Z,96694.69
2022-09-04T07:21:41.775Z,96686.91
2022-09-04T07:24:30.243Z,96692.75
2022-09-04T07:27:10.499Z,96689.69
2022-09-04T07:30:02.895Z,96683.34
2022-09-04T07:32:51.858Z,96674.94
2022-09-04T07:35:34.860Z,96658.25
2022-09-04T07:38:26.389Z,96674.41
2022-09-04T07:41:17.893Z,96661.38
2022-09-04T07:43:48.412Z,96669.88
2022-09-04T07:46:24.199Z,96663.25
2022-09-04T07:49:23.564Z,96654.88
2022-09-04T07:52:10.646Z,96667.72
2022-09-04T07:54:51.236Z,96664.59
2022-09-04T07:57:34.899Z,96668.50
2022-09-04T08:00:19.167Z,96664.75
2022-09-04T08:02:57.203Z,96658.16
2022-09-04T08:05:32.899Z,96658.97
2022-09-04T08:08:31.740Z,96662.06
2022-09-04T08:11:14.436Z,96657.81
2022-09-04T08:13:52.144Z,96660.41
2022-09-04T08:16:34.874Z,96654.03
2022-09-04T08:19:24.767Z,96649.78
2022-09-04T08:21:55.083Z,96647.53
2022-09-04T08:25:01.610Z,96647.75
2022-09-04T08:27:44.734Z,96652.16
2022-09-04T08:30:15.851Z,96640.03
2022-09-04T08:33:10.756Z,96652.81
2022-09-04T08:36:00.575Z,96642.25
2022-09-04T08:38:43.367Z,96632.47
2022-09-04T08:41:30.901Z,96639.84
2022-09-04T08:44:27.630Z,96635.47
2022-09-04T08:47:28.315Z,96629.75
2022-09-04T08:50:21.491Z,96636.03
2022-09-04T08:53:19.486Z,96628.66
2022-09-04T08:55:56.786Z,96625.53
2022-09-04T08:58:44.412Z,96627.50
2022-09-04T09:01:49.352Z,96623.63
2022-09-04T09:04:39.509Z,96614.69
2022-09-04T09:07:45.523Z,96610.78
2022-09-04T09:10:56.027Z,96606.91
2022-09-04T09:13:52.750Z,96614.25
2022-09-04T09:16:21.656Z,96606.47
2022-09-04T09:19:12.489Z,96604.13
2022-09-04T09:21:46.162Z,96611.84
2022-09-04T09:24:52.089Z,96607.13
2022-09-04T09:27:41.887Z,96605.47
2022-09-04T09:30:13.784Z,96603.03
2022-09-04T09:32:54.584Z,96600.22
2022-09-04T09:35:56.412Z,96591.91
2022-09-04T09:38:37.422Z,96592.19
2022-09-04T09:41:39.802Z,96586.66
2022-09-04T09:44:56.560Z,96585.78
2022-09-04T09:47:37.612Z,96592.66
2022-09-04T09:50:15.710Z,96582.59
2022-09-04T09:53:15.358Z,96589.53
2022-09-04T09:56:11.947Z,96573.94
2022-09-04T09:59:10.813Z,96573.88
2022-09-04T10:02:01.733Z,96580.00
2022-09-04T10:05:05.245Z,96574.97
2022-09-04T10:07:55.126Z,96567.16
2022-09-04T10:11:04.283Z,96560.13
2022-09-04T10:14:04.753Z,96563.59
2022-09-04T10:16:43.403Z,96564.38
2022-09-04T10:19:43.792Z,96555.91
2022-09-04T10:22:40.430Z,96555.53
2022-09-04T10:25:24.582Z,96556.25
2022-09-04T10:28:14.957Z,96554.97
2022-09-04T10:31:00.484Z,96556.41
2022-09-04T10:33:58.882Z,96553.22
2022-09-04T10:37:10.609Z,96546.47
2022-09-04T10:39:57.990Z,96552.59
2022-09-04T10:43:01.904Z,96548.53
2022-09-04T10:45:42.420Z,96551.84
2022-09-04T10:48:41.842Z,96547.78
2022-09-04T10:51:46.312Z,96550.72
2022-09-04T10:54:45.550Z,96542.88
2022-09-04T10:57:51.253Z,96546.56
2022-09-04T11:00:31.949Z,96540.56
2022-09-04T11:03:28.943Z,96538.50
2022-09-04T11:06:11.624Z,96538.75
2022-09-04T11:09:05.836Z,96540.84
2022-09-04T11:12:12.620Z,96530.22
2022-09-04T11:14:56.676Z,96528.84
2022-09-04T11:17:31.635Z,96515.97
2022-09-04T11:20:53.689Z,96514.97
2022-09-04T11:23:41.041Z,96525.50
2022-09-04T11:26:48.153Z,96512.56
2022-09-04T11:29:56.454Z,96509.94
2022-09-04T11:32:53.672Z,96512.03
2022-09-04T11:35:47.428Z,96508.25
2022-09-04T11:38:44.221Z,96505.91
2022-09-04T11:41:46.856Z,96514.88
2022-09-04T11:44:52.857Z,96509.88
2022-09-04T11:47:59.019Z,96514.88
2022-09-04T11:51:03.094Z,96514.78
2022-09-04T11:53:41.225Z,96502.81
2022-09-04T11:56:20.424Z,96503.25
2022-09-04T11:59:09.937Z,96498.94
2022-09-04T12:02:17.623Z,96495.63
2022-09-04T12:05:14.364Z,96491.34
2022-09-04T12:07:58.606Z,96495.22
2022-09-04T12:10:57.382Z,96498.72
2022-09-04T12:13:53.625Z,96499.94
2022-09-04T12:16:33.567Z,96485.19
2022-09-04T12:19:19.047Z,96496.63
2022-09-04T12:22:19.937Z,96494.06
2022-09-04T12:25:11.897Z,96485.25
2022-09-04T12:27:52.760Z,96495.19
2022-09-04T12:30:44.874Z,96484.34
2022-09-04T12:33:45.147Z,96477.97
2022-09-04T12:36:52.705Z,96471.59
2022-09-04T12:39:45.596Z,96472.50
2022-09-04T12:42:39.898Z,96470.06
2022-09-04T12:45:27.351Z,96468.28
2022-09-04T12:48:30.292Z,96471.19
2022-09-04T12:51:12.418Z,96475.34
2022-09-04T12:54:06.045Z,96471.75
2022-09-04T12:56:44.609Z,96476.78
2022-09-04T12:59:52.903Z,96476.56
2022-09-04T13:02:40.507Z,96475.69
2022-09-04T13:05:24.592Z,96468.75
2022-09-04T13:07:59.202Z,96463.59
2022-09-04T13:10:48.288Z,96465.50
2022-09-04T13:13:22.990Z,96460.91
2022-09-04T13:16:00.966Z,96454.31
2022-09-04T13:19:12.375Z,96454.22
2022-09-04T13:22:18.142Z,96449.59
2022-09-04T13:25:08.237Z,96445.47
2022-09-04T13:28:04.813Z,96439.44
2022-09-04T13:30:36.625Z,96439.56
2022-09-04T13:33:21.140Z,96430.81
2022-09-04T13:36:08.608Z,96428.59
2022-09-04T13:39:04.766Z,96423.31
2022-09-04T13:42:26.024Z,96414.72
2022-09-04T13:44:57.859Z,96414.03
2022-09-04T13:47:32.075Z,96406.31
2022-09-04T13:50:22.474Z,96402.19
2022-09-04T13:53:01.141Z,96401.84
2022-09-04T13:55:43.308Z,96391.09
2022-09-04T13:58:21.700Z,96387.78
2022-09-04T14:00:59.916Z,96383.84
2022-09-04T14:03:49.270Z,96379.94
2022-09-04T14:06:21.546Z,96380.47
2022-09-04T14:09:05.352Z,96380.13
2022-09-04T14:12:14.071Z,96376.22
2022-09-04T14:14:45.923Z,96371.97
2022-09-04T14:17:16.994Z,96374.22
2022-09-04T14:19:54.913Z,96376.81
2022-09-04T14:22:46.675Z,96372.47
2022-09-04T14:25:39.642Z,96370.34
2022-09-04T14:28:13.815Z,96365.06
2022-09-04T14:31:10.787Z,96358.28
2022-09-04T14:33:43.673Z,96365.66
2022-09-04T14:36:43.321Z,96359.84
2022-09-04T14:39:30.306Z,96357.84
2022-09-04T14:42:23.626Z,96353.16
2022-09-04T14:45:13.084Z,96353.59
2022-09-04T14:47:55.385Z,96344.53
2022-09-04T14:50:30.088Z,96345.75
2022-09-04T14:53:15.853Z,96344.41
2022-09-04T14:56:13.905Z,96345.97
2022-09-04T14:59:10.587Z,96339.38
2022-09-04T15:02:04.178Z,96332.31
2022-09-04T15:04:48.120Z,96336.22
2022-09-04T15:07:56.841Z,96338.13
2022-09-04T15:10:36.741Z,96331.31
2022-09-04T15:13:29.927Z,96335.56
2022-09-04T15:16:00.038Z,96333.78
2022-09-04T15:18:35.024Z,96330.75
2022-09-04T15:21:21.359Z,96318.88
2022-09-04T15:24:08.654Z,96323.66
2022-09-04T15:26:46.849Z,96320.22
2022-09-04T15:29:36.623Z,96325.03
2022-09-04T15:32:13.671Z,96313.84
2022-09-04T15:34:43.213Z,96313.50
2022-09-04T15:37:15.120Z,96314.28
2022-09-04T15:40:11.436Z,96304.25
2022-09-04T15:42:47.559Z,96302.22
2022-09-04T15:45:31.782Z,96306.72
2022-09-04T15:48:11.820Z,96307.84
2022-09-04T15:51:11.825Z,96291.53
2022-09-04T15:54:33.144Z,96288.41
2022-09-04T15:57:20.527Z,96288.41
2022-09-04T16:00:15.218Z,96276.44
2022-09-04T16:02:55.351Z,96283.81
2022-09-04T16:05:51.949Z,96268.28
2022-09-04T16:08:24.368Z,96271.97
2022-09-04T16:11:22.413Z,96265.03
2022-09-04T16:13:51.131Z,96263.03
2022-09-04T16:16:26.562Z,96258.44
2022-09-04T16:19:27.437Z,96244.59
2022-09-04T16:22:35.501Z,96251.63
2022-09-04T16:25:13.284Z,96249.97
2022-09-04T16:27:52.487Z,96242.81
2022-09-04T16:30:42.325Z,96232.50
2022-09-04T16:33:28.662Z,96228.81
2022-09-04T16:36:09.453Z,96227.34
2022-09-04T16:38:57.855Z,96225.19
2022-09-04T16:41:35.922Z,96220.59
2022-09-04T16:44:04.701Z,96215.00
2022-09-04T16:46:38.041Z,96204.69
2022-09-04T16:49:26.849Z,96199.66
2022-09-04T16:52:27.470Z,96210.16
2022-09-04T16:55:03.096Z,96190.94
2022-09-04T16:58:13.175Z,96192.13
2022-09-04T17:01:09.088Z,96186.69
2022-09-04T17:04:15.906Z,96170.13
2022-09-04T17:07:09.906Z,96174.72
2022-09-04T17:09:50.905Z,96166.09
2022-09-04T17:12:44.056Z,96167.66
2022-09-04T17:15:34.456Z,96157.34
2022-09-04T17:18:10.168Z,96153.19
2022-09-04T17:22:09.862Z,96150.63
2022-09-04T17:29:02.284Z,96144.91
2022-09-04T17:29:15.423Z,96135.38
2022-09-04T17:29:50.125Z,96137.97
2022-09-04T17:33:30.566Z,96123.41
2022-09-04T17:40:39.787Z,96115.38
2022-09-04T17:40:49.123Z,96121.41
2022-09-04T17:41:57.051Z,96123.66
2022-09-04T17:44:55.494Z,96133.88
2022-09-04T17:47:43.332Z,96121.59
2022-09-04T17:50:23.147Z,96125.03
2022-09-04T17:53:14.654Z,96115.34
2022-09-04T17:56:18.408Z,96107.47
2022-09-04T17:58:49.733Z,96102.09
2022-09-04T18:02:04.013Z,96101.50
2022-09-04T18:04:51.537Z,96093.78
2022-09-04T18:08:06.641Z,96096.56
2022-09-04T18:10:25.514Z,96082.19
2022-09-04T18:13:36.501Z,96082.72
2022-09-04T18:16:12.461Z,96081.41
2022-09-04T18:18:45.792Z,96067.63
2022-09-04T18:21:23.596Z,96069.94
2022-09-04T18:24:21.615Z,96053.47
2022-09-04T18:27:03.008Z,96051.31
2022-09-04T18:32:38.382Z,96054.88
2022-09-04T18:37:10.549Z,96049.84
2022-09-04T18:37:24.935Z,96034.91
2022-09-04T18:39:32.794Z,96025.16
2022-09-04T18:50:09.863Z,96034.41
2022-09-04T18:50:36.651Z,96018.81
2022-09-04T18:50:44.805Z,96024.19
2022-09-04T18:51:21.849Z,96018.03
2022-09-04T18:54:18.969Z,96024.75
2022-09-04T18:56:54.529Z,96014.19
2022-09-04T18:59:30.296Z,96005.34
2022-09-04T19:02:13.285Z,96014.19
2022-09-04T19:04:56.690Z,96009.22
2022-09-04T19:07:42.209Z,96006.53
2022-09-04T19:10:32.383Z,96003.00
2022-09-04T19:13:09.010Z,96004.22
2022-09-04T19:16:04.931Z,95999.19
2022-09-04T19:18:44.125Z,95999.53
2022-09-04T19:21:29.404Z,95989.84
2022-09-04T19:24:21.846Z,95986.13
2022-09-04T19:26:56.788Z,95992.53
2022-09-04T19:30:03.430Z,95984.06
2022-09-04T19:33:05.081Z,95984.56
2022-09-04T19:35:43.024Z,95970.91
2022-09-04T19:41:16.686Z,95966.16
2022-09-04T19:46:01.873Z,95953.06
2022-09-04T19:46:11.592Z,95951.59
2022-09-04T19:47:29.131Z,95949.84
2022-09-04T19:53:18.583Z,95936.06
2022-09-04T19:53:38.947Z,95929.97
2022-09-04T19:56:26.875Z,95928.19
2022-09-04T19:58:58.697Z,95925.13
2022-09-04T20:01:39.785Z,95924.72
2022-09-04T20:04:28.421Z,95928.59
2022-09-04T20:07:03.292Z,95931.69
2022-09-04T20:09:48.618Z,95927.88
2022-09-04T20:12:24.286Z,95924.47
2022-09-04T20:15:00.036Z,95922.97
2022-09-04T20:18:09.406Z,95922.25
2022-09-04T20:20:50.359Z,95912.28
2022-09-04T20:23:35.174Z,95916.94
2022-09-04T20:26:13.727Z,95908.09
2022-09-04T20:28:48.783Z,95915.44
2022-09-04T20:31:36.795Z,95908.56
2022-09-04T20:34:30.501Z,95911.19
2022-09-04T20:37:23.113Z,95902.44
2022-09-04T20:40:19.787Z,95909.81
2022-09-04T20:43:11.446Z,95901.41
2022-09-04T20:50:59.084Z,95904.03
2022-09-04T20:52:56.430Z,95900.97
2022-09-04T20:53:05.454Z,95907.09
2022-09-04T20:54:56.701Z,95897.09
2022-09-04T21:02:57.824Z,95904.75
2022-09-04T21:03:13.783Z,95896.25
2022-09-04T21:03:39.574Z,95906.28
2022-09-04T21:06:18.940Z,95894.75
2022-09-04T21:08:57.969Z,95885.50
2022-09-04T21:11:40.533Z,95888.44
2022-09-04T21:14:45.576Z,95885.28
2022-09-04T21:17:35.813Z,95894.66
2022-09-04T21:20:41.615Z,95893.38
2022-09-04T21:23:31.081Z,95886.41
2022-09-04T21:26:19.246Z,95881.50
2022-09-04T21:29:10.683Z,95893.25
2022-09-04T21:32:13.789Z,95886.19
2022-09-04T21:34:52.473Z,95889.03
2022-09-04T21:37:42.794Z,95887.75
2022-09-04T21:40:28.024Z,95875.66
2022-09-04T21:43:13.495Z,95870.00
2022-09-04T21:46:08.223Z,95873.34
2022-09-04T21:49:07.812Z,95877.56
2022-09-04T21:51:57.863Z,95887.75
2022-09-04T21:54:38.236Z,95876.09
2022-09-04T22:02:26.280Z,95868.81
2022-09-04T22:02:39.912Z,95866.06
2022-09-04T22:04:20.555Z,95874.13
2022-09-04T22:10:08.429Z,95871.00
2022-09-04T22:13:42.733Z,95863.28
2022-09-04T22:13:49.084Z,95861.31
2022-09-04T22:16:37.264Z,95840.25
2022-09-04T22:19:36.704Z,95844.06
2022-09-04T22:22:23.040Z,95836.47
2022-09-04T22:25:21.364Z,95835.34
2022-09-04T22:28:15.003Z,95829.25
2022-09-04T22:31:32.309Z,95835.81
2022-09-04T22:34:15.229Z,95824.81
2022-09-04T22:37:35.392Z,95832.22
2022-09-04T22:40:26.046Z,95815.91
2022-09-04T22:43:17.996Z,95835.53
2022-09-04T22:46:11.367Z,95831.25
2022-09-04T22:48:47.831Z,95830.03
2022-09-04T22:51:54.957Z,95838.50
2022-09-04T22:54:45.240Z,95847.84
2022-09-04T22:57:24.932Z,95877.09
2022-09-04T23:00:16.002Z,95862.59
2022-09-04T23:03:10.174Z,95831.22
2022-09-04T23:08:48.244Z,95823.88
2022-09-04T23:13:59.444Z,95824.88
2022-09-04T23:14:01.605Z,95825.50
2022-09-04T23:16:08.419Z,95819.44
2022-09-04T23:20:19.024Z,95821.69
2022-09-04T23:26:34.413Z,95807.91
2022-09-04T23:26:57.961Z,95785.75
2022-09-04T23:28:15.466Z,95786.28
2022-09-04T23:31:39.829Z,95768.75
2022-09-04T23:34:24.996Z,95776.56
2022-09-04T23:37:02.815Z,95790.84
2022-09-04T23:39:55.948Z,95792.47
2022-09-04T23:42:39.879Z,95789.91
2022-09-04T23:45:36.788Z,95787.63
2022-09-04T23:48:20.202Z,95798.09
2022-09-04T23:50:58.123Z,95798.56
2022-09-04T23:53:45.213Z,95797.44
2022-09-04T23:56:55.385Z,95802.16
